sensor_id;sensor_type;location;lat;lon;timestamp;pressure;altitude;pressure_sealevel;temperature;humidity
45071;BME280;30836;48.906;9.140;2023-01-28T00:00:27;992.32;;;9.60;40.85
45071;BME280;30836;48.906;9.140;2023-01-28T00:01:27;992.28;;;9.55;41.01
45071;BME280;30836;48.906;9.140;2023-01-28T00:02:28;992.26;;;9.52;41.05
45071;BME280;30836;48.906;9.140;2023-01-28T00:03:28;992.26;;;9.52;40.95
45071;BME280;30836;48.906;9.140;2023-01-28T00:04:28;992.26;;;9.52;40.97
45071;BME280;30836;48.906;9.140;2023-01-28T00:05:29;992.24;;;9.51;41.04
45071;BME280;30836;48.906;9.140;2023-01-28T00:06:30;992.24;;;9.50;41.04
45071;BME280;30836;48.906;9.140;2023-01-28T00:07:30;992.24;;;9.50;41.12
45071;BME280;30836;48.906;9.140;2023-01-28T00:08:31;992.26;;;9.52;41.06
45071;BME280;30836;48.906;9.140;2023-01-28T00:09:32;992.24;;;9.55;41.01
45071;BME280;30836;48.906;9.140;2023-01-28T00:10:32;992.22;;;9.57;40.99
45071;BME280;30836;48.906;9.140;2023-01-28T00:11:32;992.26;;;9.59;40.90
45071;BME280;30836;48.906;9.140;2023-01-28T00:12:33;992.26;;;9.60;40.96
45071;BME280;30836;48.906;9.140;2023-01-28T00:13:34;992.28;;;9.60;41.06
45071;BME280;30836;48.906;9.140;2023-01-28T00:14:34;992.28;;;9.61;41.07
45071;BME280;30836;48.906;9.140;2023-01-28T00:15:34;992.28;;;9.63;41.03
45071;BME280;30836;48.906;9.140;2023-01-28T00:16:35;992.28;;;9.65;41.07
45071;BME280;30836;48.906;9.140;2023-01-28T00:17:35;992.32;;;9.64;41.05
45071;BME280;30836;48.906;9.140;2023-01-28T00:18:37;992.32;;;9.63;41.07
45071;BME280;30836;48.906;9.140;2023-01-28T00:19:37;992.34;;;9.62;41.12
45071;BME280;30836;48.906;9.140;2023-01-28T00:20:38;992.32;;;9.62;41.17
45071;BME280;30836;48.906;9.140;2023-01-28T00:21:38;992.32;;;9.63;41.16
45071;BME280;30836;48.906;9.140;2023-01-28T00:22:38;992.42;;;9.63;41.12
45071;BME280;30836;48.906;9.140;2023-01-28T00:23:40;992.34;;;9.64;41.14
45071;BME280;30836;48.906;9.140;2023-01-28T00:24:41;992.42;;;9.64;41.15
45071;BME280;30836;48.906;9.140;2023-01-28T00:25:41;992.42;;;9.64;41.06
45071;BME280;30836;48.906;9.140;2023-01-28T00:26:42;992.42;;;9.63;41.08
45071;BME280;30836;48.906;9.140;2023-01-28T00:27:42;992.42;;;9.61;41.13
45071;BME280;30836;48.906;9.140;2023-01-28T00:28:43;992.32;;;9.60;41.19
45071;BME280;30836;48.906;9.140;2023-01-28T00:29:44;992.32;;;9.59;41.20
45071;BME280;30836;48.906;9.140;2023-01-28T00:30:44;992.32;;;9.59;41.17
45071;BME280;30836;48.906;9.140;2023-01-28T00:31:45;992.30;;;9.58;41.17
45071;BME280;30836;48.906;9.140;2023-01-28T00:32:45;992.30;;;9.57;41.22
45071;BME280;30836;48.906;9.140;2023-01-28T00:33:46;992.32;;;9.57;41.22
45071;BME280;30836;48.906;9.140;2023-01-28T00:34:48;992.30;;;9.61;41.23
45071;BME280;30836;48.906;9.140;2023-01-28T00:36:58;992.26;;;9.83;40.70
45071;BME280;30836;48.906;9.140;2023-01-28T00:37:58;992.28;;;9.86;40.69
45071;BME280;30836;48.906;9.140;2023-01-28T00:38:58;992.22;;;9.83;40.81
45071;BME280;30836;48.906;9.140;2023-01-28T00:39:59;992.24;;;9.78;40.89
45071;BME280;30836;48.906;9.140;2023-01-28T00:42:09;992.22;;;9.70;41.06
45071;BME280;30836;48.906;9.140;2023-01-28T00:43:09;992.20;;;9.68;41.14
45071;BME280;30836;48.906;9.140;2023-01-28T00:44:10;992.22;;;9.65;41.13
45071;BME280;30836;48.906;9.140;2023-01-28T00:45:10;992.20;;;9.63;41.23
45071;BME280;30836;48.906;9.140;2023-01-28T00:46:11;992.20;;;9.61;41.31
45071;BME280;30836;48.906;9.140;2023-01-28T00:47:12;992.16;;;9.62;41.23
45071;BME280;30836;48.906;9.140;2023-01-28T00:48:12;992.16;;;9.72;40.94
45071;BME280;30836;48.906;9.140;2023-01-28T00:49:13;992.22;;;9.87;40.62
45071;BME280;30836;48.906;9.140;2023-01-28T00:50:13;992.22;;;10.02;40.36
45071;BME280;30836;48.906;9.140;2023-01-28T00:51:15;992.24;;;10.15;40.10
45071;BME280;30836;48.906;9.140;2023-01-28T00:52:17;992.24;;;10.27;39.91
45071;BME280;30836;48.906;9.140;2023-01-28T00:53:17;992.22;;;10.39;39.71
45071;BME280;30836;48.906;9.140;2023-01-28T00:54:17;992.22;;;10.49;39.60
45071;BME280;30836;48.906;9.140;2023-01-28T00:55:18;992.20;;;10.57;39.34
45071;BME280;30836;48.906;9.140;2023-01-28T00:56:18;992.24;;;10.62;39.21
45071;BME280;30836;48.906;9.140;2023-01-28T00:57:19;992.22;;;10.65;39.20
45071;BME280;30836;48.906;9.140;2023-01-28T00:58:20;992.22;;;10.67;38.97
45071;BME280;30836;48.906;9.140;2023-01-28T00:59:20;992.22;;;10.65;38.98
45071;BME280;30836;48.906;9.140;2023-01-28T01:00:21;992.20;;;10.64;38.96
45071;BME280;30836;48.906;9.140;2023-01-28T01:01:22;992.20;;;10.65;38.94
45071;BME280;30836;48.906;9.140;2023-01-28T01:02:25;992.18;;;10.68;38.88
45071;BME280;30836;48.906;9.140;2023-01-28T01:03:25;992.18;;;10.70;38.79
45071;BME280;30836;48.906;9.140;2023-01-28T01:04:26;992.18;;;10.69;38.90
45071;BME280;30836;48.906;9.140;2023-01-28T01:05:29;992.16;;;10.68;38.99
45071;BME280;30836;48.906;9.140;2023-01-28T01:06:31;992.12;;;10.70;38.97
45071;BME280;30836;48.906;9.140;2023-01-28T01:07:34;992.14;;;10.74;38.89
45071;BME280;30836;48.906;9.140;2023-01-28T01:08:34;992.12;;;10.73;38.92
45071;BME280;30836;48.906;9.140;2023-01-28T01:09:35;992.12;;;10.68;38.94
45071;BME280;30836;48.906;9.140;2023-01-28T01:10:36;992.12;;;10.68;38.95
45071;BME280;30836;48.906;9.140;2023-01-28T01:11:37;992.12;;;10.70;38.88
45071;BME280;30836;48.906;9.140;2023-01-28T01:12:38;992.14;;;10.66;38.96
45071;BME280;30836;48.906;9.140;2023-01-28T01:13:39;992.10;;;10.52;39.41
45071;BME280;30836;48.906;9.140;2023-01-28T01:14:39;992.12;;;10.34;39.77
45071;BME280;30836;48.906;9.140;2023-01-28T01:15:40;992.12;;;10.21;40.06
45071;BME280;30836;48.906;9.140;2023-01-28T01:16:40;992.14;;;10.10;40.25
45071;BME280;30836;48.906;9.140;2023-01-28T01:17:41;992.16;;;10.01;40.45
45071;BME280;30836;48.906;9.140;2023-01-28T01:18:43;992.18;;;9.93;40.51
45071;BME280;30836;48.906;9.140;2023-01-28T01:19:44;992.20;;;9.87;40.58
45071;BME280;30836;48.906;9.140;2023-01-28T01:20:44;992.18;;;9.83;40.68
45071;BME280;30836;48.906;9.140;2023-01-28T01:21:45;992.22;;;9.76;40.94
45071;BME280;30836;48.906;9.140;2023-01-28T01:22:45;992.18;;;9.62;41.38
45071;BME280;30836;48.906;9.140;2023-01-28T01:23:47;992.20;;;9.49;41.47
45071;BME280;30836;48.906;9.140;2023-01-28T01:24:47;992.20;;;9.43;41.45
45071;BME280;30836;48.906;9.140;2023-01-28T01:25:48;992.20;;;9.40;41.58
45071;BME280;30836;48.906;9.140;2023-01-28T01:26:48;992.20;;;9.36;41.91
45071;BME280;30836;48.906;9.140;2023-01-28T01:27:48;992.22;;;9.31;41.92
45071;BME280;30836;48.906;9.140;2023-01-28T01:28:50;992.22;;;9.28;42.00
45071;BME280;30836;48.906;9.140;2023-01-28T01:29:51;992.22;;;9.26;42.10
45071;BME280;30836;48.906;9.140;2023-01-28T01:30:57;992.22;;;9.26;42.04
45071;BME280;30836;48.906;9.140;2023-01-28T01:32:01;992.26;;;9.27;42.01
45071;BME280;30836;48.906;9.140;2023-01-28T01:33:01;992.26;;;9.28;42.09
45071;BME280;30836;48.906;9.140;2023-01-28T01:34:02;992.28;;;9.26;42.05
45071;BME280;30836;48.906;9.140;2023-01-28T01:35:03;992.30;;;9.23;42.14
45071;BME280;30836;48.906;9.140;2023-01-28T01:36:05;992.30;;;9.22;42.23
45071;BME280;30836;48.906;9.140;2023-01-28T01:37:05;992.32;;;9.21;42.31
45071;BME280;30836;48.906;9.140;2023-01-28T01:38:06;992.32;;;9.22;42.27
45071;BME280;30836;48.906;9.140;2023-01-28T01:39:08;992.32;;;9.23;42.15
45071;BME280;30836;48.906;9.140;2023-01-28T01:40:11;992.32;;;9.24;42.19
45071;BME280;30836;48.906;9.140;2023-01-28T01:41:21;992.32;;;9.22;42.19
45071;BME280;30836;48.906;9.140;2023-01-28T01:42:25;992.42;;;9.22;42.25
45071;BME280;30836;48.906;9.140;2023-01-28T01:43:43;992.42;;;9.22;42.28
45071;BME280;30836;48.906;9.140;2023-01-28T01:45:48;992.44;;;9.20;42.42
45071;BME280;30836;48.906;9.140;2023-01-28T01:46:52;992.46;;;9.20;42.50
45071;BME280;30836;48.906;9.140;2023-01-28T01:47:58;992.44;;;9.17;42.60
45071;BME280;30836;48.906;9.140;2023-01-28T01:51:31;992.44;;;9.11;42.62
45071;BME280;30836;48.906;9.140;2023-01-28T01:52:34;992.44;;;9.12;42.62
45071;BME280;30836;48.906;9.140;2023-01-28T01:53:40;992.42;;;9.13;42.61
45071;BME280;30836;48.906;9.140;2023-01-28T01:54:44;992.44;;;9.11;42.62
45071;BME280;30836;48.906;9.140;2023-01-28T01:55:49;992.42;;;9.07;42.61
45071;BME280;30836;48.906;9.140;2023-01-28T01:56:51;992.42;;;9.05;42.81
45071;BME280;30836;48.906;9.140;2023-01-28T01:57:53;992.42;;;9.16;42.43
45071;BME280;30836;48.906;9.140;2023-01-28T01:58:55;992.34;;;9.31;42.08
45071;BME280;30836;48.906;9.140;2023-01-28T01:59:56;992.46;;;9.45;41.85
45071;BME280;30836;48.906;9.140;2023-01-28T02:00:59;992.44;;;9.61;41.51
45071;BME280;30836;48.906;9.140;2023-01-28T02:02:00;992.44;;;9.75;41.32
45071;BME280;30836;48.906;9.140;2023-01-28T02:03:03;992.42;;;9.87;41.12
45071;BME280;30836;48.906;9.140;2023-01-28T02:05:08;992.34;;;10.08;40.63
45071;BME280;30836;48.906;9.140;2023-01-28T02:06:10;992.34;;;10.11;40.74
45071;BME280;30836;48.906;9.140;2023-01-28T02:07:12;992.32;;;10.12;40.64
45071;BME280;30836;48.906;9.140;2023-01-28T02:08:15;992.30;;;10.17;40.51
45071;BME280;30836;48.906;9.140;2023-01-28T02:09:34;992.32;;;10.23;40.35
45071;BME280;30836;48.906;9.140;2023-01-28T02:10:24;992.32;;;10.30;40.27
45071;BME280;30836;48.906;9.140;2023-01-28T02:11:25;992.42;;;10.36;40.17
45071;BME280;30836;48.906;9.140;2023-01-28T02:12:30;992.44;;;10.39;40.01
45071;BME280;30836;48.906;9.140;2023-01-28T02:13:35;992.46;;;10.40;40.03
45071;BME280;30836;48.906;9.140;2023-01-28T02:14:41;992.44;;;10.38;40.01
45071;BME280;30836;48.906;9.140;2023-01-28T02:15:44;992.44;;;10.38;40.08
45071;BME280;30836;48.906;9.140;2023-01-28T02:16:45;992.44;;;10.40;40.03
45071;BME280;30836;48.906;9.140;2023-01-28T02:17:46;992.34;;;10.43;40.01
45071;BME280;30836;48.906;9.140;2023-01-28T02:18:48;992.42;;;10.46;39.89
45071;BME280;30836;48.906;9.140;2023-01-28T02:19:51;992.42;;;10.48;39.86
45071;BME280;30836;48.906;9.140;2023-01-28T02:22:12;992.44;;;10.49;39.96
45071;BME280;30836;48.906;9.140;2023-01-28T02:25:40;992.48;;;10.57;39.77
45071;BME280;30836;48.906;9.140;2023-01-28T02:29:04;992.48;;;10.54;39.93
45071;BME280;30836;48.906;9.140;2023-01-28T02:30:24;992.48;;;10.54;39.92
45071;BME280;30836;48.906;9.140;2023-01-28T02:31:33;992.46;;;10.54;39.89
45071;BME280;30836;48.906;9.140;2023-01-28T02:32:43;992.48;;;10.52;39.99
45071;BME280;30836;48.906;9.140;2023-01-28T02:38:27;992.54;;;10.27;40.67
45071;BME280;30836;48.906;9.140;2023-01-28T02:39:35;992.52;;;10.21;40.89
45071;BME280;30836;48.906;9.140;2023-01-28T02:40:42;992.52;;;10.18;40.79
45071;BME280;30836;48.906;9.140;2023-01-28T02:41:51;992.54;;;10.22;40.74
45071;BME280;30836;48.906;9.140;2023-01-28T02:42:56;992.54;;;10.28;40.57
45071;BME280;30836;48.906;9.140;2023-01-28T02:43:57;992.54;;;10.35;40.40
45071;BME280;30836;48.906;9.140;2023-01-28T02:45:01;992.56;;;10.39;40.43
45071;BME280;30836;48.906;9.140;2023-01-28T02:46:09;992.56;;;10.44;40.39
45071;BME280;30836;48.906;9.140;2023-01-28T02:47:13;992.54;;;10.51;40.28
45071;BME280;30836;48.906;9.140;2023-01-28T02:48:15;992.54;;;10.55;40.18
45071;BME280;30836;48.906;9.140;2023-01-28T02:49:18;992.54;;;10.51;40.54
45071;BME280;30836;48.906;9.140;2023-01-28T02:50:22;992.54;;;10.45;40.61
45071;BME280;30836;48.906;9.140;2023-01-28T02:52:44;992.54;;;10.49;40.54
45071;BME280;30836;48.906;9.140;2023-01-28T02:53:52;992.54;;;10.53;40.45
45071;BME280;30836;48.906;9.140;2023-01-28T02:55:00;992.58;;;10.58;40.35
45071;BME280;30836;48.906;9.140;2023-01-28T02:57:19;992.58;;;10.64;40.30
45071;BME280;30836;48.906;9.140;2023-01-28T02:58:34;992.58;;;10.65;40.26
45071;BME280;30836;48.906;9.140;2023-01-28T02:59:40;992.60;;;10.65;40.29
45071;BME280;30836;48.906;9.140;2023-01-28T03:01:55;992.62;;;10.68;40.29
45071;BME280;30836;48.906;9.140;2023-01-28T03:03:07;992.62;;;10.68;40.33
45071;BME280;30836;48.906;9.140;2023-01-28T03:05:28;992.60;;;10.68;40.34
45071;BME280;30836;48.906;9.140;2023-01-28T03:07:41;992.62;;;10.57;40.71
45071;BME280;30836;48.906;9.140;2023-01-28T03:08:45;992.60;;;10.51;40.67
45071;BME280;30836;48.906;9.140;2023-01-28T03:09:52;992.60;;;10.52;40.65
45071;BME280;30836;48.906;9.140;2023-01-28T03:10:55;992.60;;;10.54;40.63
45071;BME280;30836;48.906;9.140;2023-01-28T03:13:07;992.58;;;10.60;40.53
45071;BME280;30836;48.906;9.140;2023-01-28T03:14:08;992.60;;;10.61;40.47
45071;BME280;30836;48.906;9.140;2023-01-28T03:15:12;992.62;;;10.63;40.45
45071;BME280;30836;48.906;9.140;2023-01-28T03:16:15;992.62;;;10.64;40.49
45071;BME280;30836;48.906;9.140;2023-01-28T03:17:18;992.62;;;10.67;40.49
45071;BME280;30836;48.906;9.140;2023-01-28T03:19:35;992.66;;;10.74;40.36
45071;BME280;30836;48.906;9.140;2023-01-28T03:21:46;992.68;;;10.78;40.30
45071;BME280;30836;48.906;9.140;2023-01-28T03:22:49;992.66;;;10.79;40.28
45071;BME280;30836;48.906;9.140;2023-01-28T03:24:59;992.68;;;10.85;40.19
45071;BME280;30836;48.906;9.140;2023-01-28T03:26:01;992.66;;;10.89;40.14
45071;BME280;30836;48.906;9.140;2023-01-28T03:27:10;992.66;;;10.93;40.07
45071;BME280;30836;48.906;9.140;2023-01-28T03:28:16;992.62;;;10.96;39.99
45071;BME280;30836;48.906;9.140;2023-01-28T03:29:21;992.66;;;10.99;39.99
45071;BME280;30836;48.906;9.140;2023-01-28T03:30:26;992.64;;;11.02;39.97
45071;BME280;30836;48.906;9.140;2023-01-28T03:31:31;992.62;;;11.04;39.92
45071;BME280;30836;48.906;9.140;2023-01-28T03:32:33;992.64;;;11.05;39.94
45071;BME280;30836;48.906;9.140;2023-01-28T03:33:34;992.62;;;11.05;39.91
45071;BME280;30836;48.906;9.140;2023-01-28T03:34:35;992.62;;;11.06;39.93
45071;BME280;30836;48.906;9.140;2023-01-28T03:35:37;992.62;;;11.05;39.88
45071;BME280;30836;48.906;9.140;2023-01-28T03:36:38;992.68;;;11.04;39.93
45071;BME280;30836;48.906;9.140;2023-01-28T03:37:39;992.70;;;11.04;39.92
45071;BME280;30836;48.906;9.140;2023-01-28T03:38:40;992.70;;;11.04;39.98
45071;BME280;30836;48.906;9.140;2023-01-28T03:39:42;992.70;;;11.05;39.96
45071;BME280;30836;48.906;9.140;2023-01-28T03:42:59;992.70;;;10.92;40.51
45071;BME280;30836;48.906;9.140;2023-01-28T03:43:59;992.70;;;10.81;40.54
45071;BME280;30836;48.906;9.140;2023-01-28T03:45:00;992.72;;;10.80;40.38
45071;BME280;30836;48.906;9.140;2023-01-28T03:46:00;992.72;;;10.79;40.40
45071;BME280;30836;48.906;9.140;2023-01-28T03:47:02;992.72;;;10.74;40.58
45071;BME280;30836;48.906;9.140;2023-01-28T03:48:02;992.70;;;10.73;40.58
45071;BME280;30836;48.906;9.140;2023-01-28T03:49:03;992.70;;;10.74;40.62
45071;BME280;30836;48.906;9.140;2023-01-28T03:50:03;992.72;;;10.73;40.62
45071;BME280;30836;48.906;9.140;2023-01-28T03:51:04;992.73;;;10.70;40.70
45071;BME280;30836;48.906;9.140;2023-01-28T03:52:05;992.73;;;10.68;40.77
45071;BME280;30836;48.906;9.140;2023-01-28T03:53:05;992.73;;;10.71;40.74
45071;BME280;30836;48.906;9.140;2023-01-28T03:54:05;992.77;;;10.74;40.62
45071;BME280;30836;48.906;9.140;2023-01-28T03:55:06;992.75;;;10.77;40.62
45071;BME280;30836;48.906;9.140;2023-01-28T03:56:07;992.75;;;10.79;40.56
45071;BME280;30836;48.906;9.140;2023-01-28T03:57:07;992.72;;;10.80;40.60
45071;BME280;30836;48.906;9.140;2023-01-28T03:58:08;992.72;;;10.81;40.61
45071;BME280;30836;48.906;9.140;2023-01-28T03:59:09;992.72;;;10.82;40.60
45071;BME280;30836;48.906;9.140;2023-01-28T04:00:09;992.68;;;10.83;40.63
45071;BME280;30836;48.906;9.140;2023-01-28T04:01:11;992.68;;;10.84;40.62
45071;BME280;30836;48.906;9.140;2023-01-28T04:02:12;992.72;;;10.84;40.57
45071;BME280;30836;48.906;9.140;2023-01-28T04:03:13;992.72;;;10.83;40.65
45071;BME280;30836;48.906;9.140;2023-01-28T04:04:15;992.70;;;10.82;40.63
45071;BME280;30836;48.906;9.140;2023-01-28T04:05:16;992.72;;;10.84;40.58
45071;BME280;30836;48.906;9.140;2023-01-28T04:06:16;992.72;;;10.86;40.57
45071;BME280;30836;48.906;9.140;2023-01-28T04:07:17;992.73;;;10.87;40.57
45071;BME280;30836;48.906;9.140;2023-01-28T04:08:17;992.73;;;10.88;40.52
45071;BME280;30836;48.906;9.140;2023-01-28T04:09:18;992.72;;;10.88;40.59
45071;BME280;30836;48.906;9.140;2023-01-28T04:10:19;992.77;;;10.87;40.58
45071;BME280;30836;48.906;9.140;2023-01-28T04:11:20;992.75;;;10.87;40.73
45071;BME280;30836;48.906;9.140;2023-01-28T04:12:20;992.77;;;10.86;40.71
45071;BME280;30836;48.906;9.140;2023-01-28T04:13:21;992.79;;;10.86;40.73
45071;BME280;30836;48.906;9.140;2023-01-28T04:14:21;992.79;;;10.86;40.69
45071;BME280;30836;48.906;9.140;2023-01-28T04:15:22;992.77;;;10.87;40.70
45071;BME280;30836;48.906;9.140;2023-01-28T04:16:22;992.79;;;10.87;40.76
45071;BME280;30836;48.906;9.140;2023-01-28T04:17:23;992.79;;;10.83;40.96
45071;BME280;30836;48.906;9.140;2023-01-28T04:18:23;992.79;;;10.79;40.94
45071;BME280;30836;48.906;9.140;2023-01-28T04:19:24;992.81;;;10.79;40.88
45071;BME280;30836;48.906;9.140;2023-01-28T04:20:25;992.83;;;10.82;40.90
45071;BME280;30836;48.906;9.140;2023-01-28T04:21:26;992.81;;;10.85;40.88
45071;BME280;30836;48.906;9.140;2023-01-28T04:22:26;992.85;;;10.87;40.81
45071;BME280;30836;48.906;9.140;2023-01-28T04:23:26;992.85;;;10.88;40.85
45071;BME280;30836;48.906;9.140;2023-01-28T04:24:27;992.87;;;10.88;40.89
45071;BME280;30836;48.906;9.140;2023-01-28T04:25:27;992.87;;;10.88;40.88
45071;BME280;30836;48.906;9.140;2023-01-28T04:26:28;992.87;;;10.88;40.84
45071;BME280;30836;48.906;9.140;2023-01-28T04:27:28;992.87;;;10.88;40.91
45071;BME280;30836;48.906;9.140;2023-01-28T04:28:29;992.87;;;10.88;40.88
45071;BME280;30836;48.906;9.140;2023-01-28T04:29:29;992.85;;;10.87;40.97
45071;BME280;30836;48.906;9.140;2023-01-28T04:30:30;992.89;;;10.87;41.00
45071;BME280;30836;48.906;9.140;2023-01-28T04:31:30;992.87;;;10.88;40.97
45071;BME280;30836;48.906;9.140;2023-01-28T04:32:31;992.91;;;10.90;40.96
45071;BME280;30836;48.906;9.140;2023-01-28T04:33:31;992.93;;;10.91;40.96
45071;BME280;30836;48.906;9.140;2023-01-28T04:34:32;992.93;;;10.91;40.98
45071;BME280;30836;48.906;9.140;2023-01-28T04:35:32;992.93;;;10.92;40.94
45071;BME280;30836;48.906;9.140;2023-01-28T04:36:33;992.89;;;10.92;40.91
45071;BME280;30836;48.906;9.140;2023-01-28T04:37:33;992.91;;;10.93;40.83
45071;BME280;30836;48.906;9.140;2023-01-28T04:38:34;992.95;;;10.92;40.94
45071;BME280;30836;48.906;9.140;2023-01-28T04:39:34;992.97;;;10.92;40.95
45071;BME280;30836;48.906;9.140;2023-01-28T04:40:34;992.97;;;10.91;40.96
45071;BME280;30836;48.906;9.140;2023-01-28T04:41:35;992.99;;;10.91;40.98
45071;BME280;30836;48.906;9.140;2023-01-28T04:42:35;992.99;;;10.91;40.96
45071;BME280;30836;48.906;9.140;2023-01-28T04:43:36;993.01;;;10.90;41.03
45071;BME280;30836;48.906;9.140;2023-01-28T04:44:36;992.99;;;10.88;41.12
45071;BME280;30836;48.906;9.140;2023-01-28T04:45:37;993.01;;;10.86;41.18
45071;BME280;30836;48.906;9.140;2023-01-28T04:46:37;993.03;;;10.86;41.25
45071;BME280;30836;48.906;9.140;2023-01-28T04:47:37;993.07;;;10.84;41.33
45071;BME280;30836;48.906;9.140;2023-01-28T04:48:38;993.07;;;10.82;41.41
45071;BME280;30836;48.906;9.140;2023-01-28T04:49:38;993.07;;;10.82;41.37
45071;BME280;30836;48.906;9.140;2023-01-28T04:50:39;993.07;;;10.83;41.34
45071;BME280;30836;48.906;9.140;2023-01-28T04:51:40;993.05;;;10.84;41.34
45071;BME280;30836;48.906;9.140;2023-01-28T04:52:40;993.05;;;10.81;41.40
45071;BME280;30836;48.906;9.140;2023-01-28T04:53:41;993.11;;;10.77;41.47
45071;BME280;30836;48.906;9.140;2023-01-28T04:54:41;993.07;;;10.74;41.59
45071;BME280;30836;48.906;9.140;2023-01-28T04:55:43;993.09;;;10.68;41.79
45071;BME280;30836;48.906;9.140;2023-01-28T04:56:44;993.03;;;10.62;41.94
45071;BME280;30836;48.906;9.140;2023-01-28T04:57:45;993.03;;;10.60;41.89
45071;BME280;30836;48.906;9.140;2023-01-28T04:58:46;993.05;;;10.59;41.95
45071;BME280;30836;48.906;9.140;2023-01-28T04:59:46;993.05;;;10.59;41.98
45071;BME280;30836;48.906;9.140;2023-01-28T05:00:50;993.07;;;10.57;42.19
45071;BME280;30836;48.906;9.140;2023-01-28T05:01:53;993.07;;;10.54;42.38
45071;BME280;30836;48.906;9.140;2023-01-28T05:02:54;993.07;;;10.49;42.71
45071;BME280;30836;48.906;9.140;2023-01-28T05:03:54;993.07;;;10.43;42.72
45071;BME280;30836;48.906;9.140;2023-01-28T05:04:54;993.11;;;10.40;42.70
45071;BME280;30836;48.906;9.140;2023-01-28T05:05:55;993.11;;;10.38;42.69
45071;BME280;30836;48.906;9.140;2023-01-28T05:06:55;993.13;;;10.41;42.62
45071;BME280;30836;48.906;9.140;2023-01-28T05:07:56;993.13;;;10.42;42.68
45071;BME280;30836;48.906;9.140;2023-01-28T05:08:57;993.15;;;10.42;42.81
45071;BME280;30836;48.906;9.140;2023-01-28T05:09:58;993.15;;;10.44;42.68
45071;BME280;30836;48.906;9.140;2023-01-28T05:10:58;993.19;;;10.49;42.61
45071;BME280;30836;48.906;9.140;2023-01-28T05:11:59;993.19;;;10.54;42.58
45071;BME280;30836;48.906;9.140;2023-01-28T05:12:59;993.19;;;10.56;42.61
45071;BME280;30836;48.906;9.140;2023-01-28T05:13:59;993.19;;;10.58;42.62
45071;BME280;30836;48.906;9.140;2023-01-28T05:15:00;993.19;;;10.60;42.60
45071;BME280;30836;48.906;9.140;2023-01-28T05:16:00;993.21;;;10.63;42.56
45071;BME280;30836;48.906;9.140;2023-01-28T05:17:01;993.21;;;10.64;42.62
45071;BME280;30836;48.906;9.140;2023-01-28T05:18:01;993.19;;;10.62;42.62
45071;BME280;30836;48.906;9.140;2023-01-28T05:19:02;993.19;;;10.63;42.62
45071;BME280;30836;48.906;9.140;2023-01-28T05:20:03;993.17;;;10.65;42.57
45071;BME280;30836;48.906;9.140;2023-01-28T05:21:05;993.19;;;10.68;42.55
45071;BME280;30836;48.906;9.140;2023-01-28T05:22:05;993.21;;;10.72;42.48
45071;BME280;30836;48.906;9.140;2023-01-28T05:23:06;993.19;;;10.76;42.40
45071;BME280;30836;48.906;9.140;2023-01-28T05:24:06;993.19;;;10.80;42.33
45071;BME280;30836;48.906;9.140;2023-01-28T05:25:07;993.21;;;10.83;42.33
45071;BME280;30836;48.906;9.140;2023-01-28T05:26:08;993.21;;;10.83;42.41
45071;BME280;30836;48.906;9.140;2023-01-28T05:27:09;993.19;;;10.83;42.42
45071;BME280;30836;48.906;9.140;2023-01-28T05:28:10;993.17;;;10.84;42.36
45071;BME280;30836;48.906;9.140;2023-01-28T05:29:10;993.19;;;10.84;42.33
45071;BME280;30836;48.906;9.140;2023-01-28T05:30:11;993.19;;;10.85;42.32
45071;BME280;30836;48.906;9.140;2023-01-28T05:31:11;993.21;;;10.87;42.33
45071;BME280;30836;48.906;9.140;2023-01-28T05:32:12;993.23;;;10.87;42.32
45071;BME280;30836;48.906;9.140;2023-01-28T05:33:12;993.25;;;10.87;42.32
45071;BME280;30836;48.906;9.140;2023-01-28T05:34:12;993.23;;;10.89;42.24
45071;BME280;30836;48.906;9.140;2023-01-28T05:35:13;993.21;;;10.90;42.21
45071;BME280;30836;48.906;9.140;2023-01-28T05:36:14;993.23;;;10.92;42.18
45071;BME280;30836;48.906;9.140;2023-01-28T05:37:14;993.27;;;10.94;42.11
45071;BME280;30836;48.906;9.140;2023-01-28T05:38:15;993.27;;;10.95;42.17
45071;BME280;30836;48.906;9.140;2023-01-28T05:39:15;993.28;;;10.95;42.22
45071;BME280;30836;48.906;9.140;2023-01-28T05:40:15;993.28;;;10.95;42.20
45071;BME280;30836;48.906;9.140;2023-01-28T05:41:16;993.27;;;10.96;42.21
45071;BME280;30836;48.906;9.140;2023-01-28T05:42:17;993.28;;;10.96;42.22
45071;BME280;30836;48.906;9.140;2023-01-28T05:43:17;993.28;;;10.98;42.19
45071;BME280;30836;48.906;9.140;2023-01-28T05:44:17;993.30;;;10.99;42.15
45071;BME280;30836;48.906;9.140;2023-01-28T05:45:18;993.27;;;10.99;42.10
45071;BME280;30836;48.906;9.140;2023-01-28T05:46:18;993.28;;;11.01;42.09
45071;BME280;30836;48.906;9.140;2023-01-28T05:47:19;993.30;;;11.01;42.06
45071;BME280;30836;48.906;9.140;2023-01-28T05:48:19;993.28;;;11.01;42.11
45071;BME280;30836;48.906;9.140;2023-01-28T05:49:20;993.27;;;11.01;42.13
45071;BME280;30836;48.906;9.140;2023-01-28T05:50:20;993.25;;;11.03;42.12
45071;BME280;30836;48.906;9.140;2023-01-28T05:51:20;993.27;;;11.04;42.07
45071;BME280;30836;48.906;9.140;2023-01-28T05:52:21;993.27;;;11.06;42.10
45071;BME280;30836;48.906;9.140;2023-01-28T05:53:21;993.27;;;11.07;42.05
45071;BME280;30836;48.906;9.140;2023-01-28T05:54:22;993.23;;;11.02;42.20
45071;BME280;30836;48.906;9.140;2023-01-28T05:55:22;993.23;;;10.96;42.23
45071;BME280;30836;48.906;9.140;2023-01-28T05:56:23;993.27;;;10.92;42.32
45071;BME280;30836;48.906;9.140;2023-01-28T05:57:23;993.25;;;10.88;42.41
45071;BME280;30836;48.906;9.140;2023-01-28T05:58:24;993.27;;;10.81;42.66
45071;BME280;30836;48.906;9.140;2023-01-28T05:59:24;993.28;;;10.76;42.68
45071;BME280;30836;48.906;9.140;2023-01-28T06:00:25;993.28;;;10.77;42.60
45071;BME280;30836;48.906;9.140;2023-01-28T06:01:25;993.30;;;10.79;42.60
45071;BME280;30836;48.906;9.140;2023-01-28T06:02:26;993.30;;;10.76;42.58
45071;BME280;30836;48.906;9.140;2023-01-28T06:03:26;993.28;;;10.69;42.93
45071;BME280;30836;48.906;9.140;2023-01-28T06:04:27;993.28;;;10.57;43.19
45071;BME280;30836;48.906;9.140;2023-01-28T06:05:27;993.25;;;10.41;43.68
45071;BME280;30836;48.906;9.140;2023-01-28T06:06:28;993.25;;;10.26;43.87
45071;BME280;30836;48.906;9.140;2023-01-28T06:07:28;993.28;;;10.16;44.00